Impacts TAF Board
For situational awareness. Not to be used for flight planning purposes.
IDs:

KPHX - Phoenix/Sky Harbor, AZ, US

Issued at 1120 UTC 20 Oct 2021
Updated at 1219 UTC 20 Oct 2021
Potential Impact None Slight Moderate High
Time<<21/13Z 21/14Z 21/15Z 21/16Z 21/17Z 21/18Z 21/19Z 21/20Z 21/21Z 21/22Z 21/23Z 22/00Z 22/01Z
Type PRVL PRVL PRVL PRVL PRVL
VIS >6 >6 >6 >6 >6
CIG -- -- -- -- --
Cover FEW FEW FEW FEW FEW
FltCat VFR VFR VFR VFR VFR
WX -- -- -- -- --
WDir 90 90 90 90 90
WSpd 5 5 5 5 5
WGst -- -- -- -- --
Raw TAF
KPHX 201120Z 2012/2118 10005KT P6SM FEW250
  FM202100 24004KT P6SM FEW250
  FM210100 31005KT P6SM FEW250
  FM210600 09005KT P6SM FEW150 FEW250


METAR Board
Radar Display
Forecast Discussion
For situational awareness. Not to be used for flight planning purposes.